createdAt,value
2023-03-11T00:02:32.955Z,1.38
2023-03-11T00:05:27.537Z,1.33
2023-03-11T00:08:21.023Z,1.29
2023-03-11T00:11:12.024Z,1.23
2023-03-11T00:14:02.980Z,1.20
2023-03-11T00:16:54.057Z,1.15
2023-03-11T00:19:45.165Z,1.09
2023-03-11T00:22:36.274Z,1.07
2023-03-11T00:25:18.750Z,1.02
2023-03-11T00:28:10.546Z,0.98
2023-03-11T00:31:01.601Z,0.94
2023-03-11T00:33:53.009Z,0.90
2023-03-11T00:36:44.126Z,0.87
2023-03-11T00:39:15.133Z,0.81
2023-03-11T00:42:05.158Z,0.76
2023-03-11T00:44:56.076Z,0.72
2023-03-11T00:47:46.477Z,0.68
2023-03-11T00:50:20.779Z,0.65
2023-03-11T00:53:11.841Z,0.61
2023-03-11T00:56:09.757Z,0.61
2023-03-11T00:59:00.832Z,0.59
2023-03-11T01:01:34.549Z,0.56
2023-03-11T01:04:25.626Z,0.57
2023-03-11T01:07:16.621Z,0.57
2023-03-11T01:09:47.494Z,0.56
2023-03-11T01:12:37.297Z,0.55
2023-03-11T01:15:22.376Z,0.54
2023-03-11T01:18:04.327Z,0.54
2023-03-11T01:20:56.360Z,0.58
2023-03-11T01:23:37.423Z,0.59
2023-03-11T01:26:11.303Z,0.60
2023-03-11T01:29:01.714Z,0.61
2023-03-11T01:31:46.491Z,0.63
2023-03-11T01:34:37.557Z,0.64
2023-03-11T01:37:28.691Z,0.68
2023-03-11T01:40:24.676Z,0.72
2023-03-11T01:43:24.100Z,0.74
2023-03-11T01:46:19.124Z,0.77
2023-03-11T01:49:14.461Z,0.80
2023-03-11T01:52:08.104Z,0.81
2023-03-11T01:54:59.248Z,0.82
2023-03-11T01:57:51.168Z,0.83
2023-03-11T02:00:25.707Z,0.84
2023-03-11T02:03:23.900Z,0.84
2023-03-11T02:05:57.519Z,0.85
2023-03-11T02:08:39.568Z,0.85
2023-03-11T02:11:25.147Z,0.85
2023-03-11T02:14:17.109Z,0.85
2023-03-11T02:16:47.953Z,0.85
2023-03-11T02:19:51.859Z,0.86
2023-03-11T02:22:23.874Z,0.86
2023-03-11T02:25:26.588Z,0.86
2023-03-11T02:28:11.796Z,0.85
2023-03-11T02:31:03.827Z,0.86
2023-03-11T02:33:50.391Z,0.86
2023-03-11T02:36:43.186Z,0.86
2023-03-11T02:39:16.987Z,0.85
2023-03-11T02:42:11.708Z,0.85
2023-03-11T02:44:45.491Z,0.86
2023-03-11T02:47:17.929Z,0.85
2023-03-11T02:50:12.512Z,0.85
2023-03-11T02:52:57.694Z,0.84
2023-03-11T02:55:48.539Z,0.83
2023-03-11T02:58:22.381Z,0.82
2023-03-11T03:01:13.341Z,0.79
2023-03-11T03:03:46.103Z,0.75
2023-03-11T03:06:37.138Z,0.72
2023-03-11T03:09:08.303Z,0.71
2023-03-11T03:11:59.245Z,0.70
2023-03-11T03:14:28.997Z,0.70
2023-03-11T03:17:20.005Z,0.69
2023-03-11T03:20:14.934Z,0.68
2023-03-11T03:22:57.366Z,0.65
2023-03-11T03:25:30.906Z,0.63
2023-03-11T03:28:21.850Z,0.61
2023-03-11T03:31:13.417Z,0.58
2023-03-11T03:34:02.720Z,0.53
2023-03-11T03:36:53.599Z,0.47
2023-03-11T03:39:44.567Z,0.40
2023-03-11T03:42:35.866Z,0.35
2023-03-11T03:45:20.944Z,0.31
2023-03-11T03:48:11.865Z,0.30
2023-03-11T03:51:07.571Z,0.29
2023-03-11T03:53:58.494Z,0.30
2023-03-11T03:56:49.428Z,0.30
2023-03-11T03:59:40.520Z,0.31
2023-03-11T04:02:32.011Z,0.32
2023-03-11T04:05:22.005Z,0.36
2023-03-11T04:08:12.979Z,0.38
2023-03-11T04:11:03.927Z,0.41
2023-03-11T04:13:55.634Z,0.43
2023-03-11T04:16:29.709Z,0.45
2023-03-11T04:19:20.633Z,0.47
2023-03-11T04:22:11.836Z,0.49
2023-03-11T04:25:02.644Z,0.51
2023-03-11T04:27:53.450Z,0.51
2023-03-11T04:30:44.420Z,0.51
2023-03-11T04:33:35.612Z,0.51
2023-03-11T04:36:26.561Z,0.49
2023-03-11T04:39:17.524Z,0.48
2023-03-11T04:42:08.825Z,0.46
2023-03-11T04:44:59.649Z,0.40
2023-03-11T04:47:52.316Z,0.36
2023-03-11T04:50:43.098Z,0.33
2023-03-11T04:53:34.101Z,0.27
2023-03-11T04:56:24.998Z,0.22
2023-03-11T04:59:16.020Z,0.17
2023-03-11T05:02:07.019Z,0.11
2023-03-11T05:05:00.750Z,0.07
2023-03-11T05:07:44.266Z,0.02
2023-03-11T05:10:35.276Z,-0.00
2023-03-11T05:13:26.221Z,-0.02
2023-03-11T05:16:11.284Z,-0.03
2023-03-11T05:18:52.984Z,-0.02
2023-03-11T05:21:36.545Z,-0.05
2023-03-11T05:24:27.379Z,-0.09
2023-03-11T05:26:57.536Z,-0.11
2023-03-11T05:29:48.481Z,-0.15
2023-03-11T05:32:33.290Z,-0.20
2023-03-11T05:35:24.313Z,-0.25
2023-03-11T05:37:55.280Z,-0.31
2023-03-11T05:40:46.232Z,-0.36
2023-03-11T05:43:37.273Z,-0.39
2023-03-11T05:46:14.051Z,-0.41
2023-03-11T05:49:04.965Z,-0.45
2023-03-11T05:51:58.552Z,-0.52
2023-03-11T05:54:52.438Z,-0.61
2023-03-11T05:57:43.387Z,-0.70
2023-03-11T06:00:34.196Z,-0.77
2023-03-11T06:03:10.587Z,-0.83
2023-03-11T06:06:01.553Z,-0.90
2023-03-11T06:08:50.068Z,-0.94
2023-03-11T06:11:31.000Z,-0.92
2023-03-11T06:14:22.134Z,-0.91
2023-03-11T06:17:04.142Z,-0.88
2023-03-11T06:19:37.468Z,-0.84
2023-03-11T06:22:28.423Z,-0.80
2023-03-11T06:25:20.041Z,-0.77
2023-03-11T06:28:09.283Z,-0.77
2023-03-11T06:31:09.822Z,-0.76
2023-03-11T06:33:59.926Z,-0.77
2023-03-11T06:36:50.885Z,-0.77
2023-03-11T06:39:41.772Z,-0.73
2023-03-11T06:42:32.748Z,-0.68
2023-03-11T06:45:23.948Z,-0.57
2023-03-11T06:48:14.876Z,-0.47
2023-03-11T06:51:06.386Z,-0.40
2023-03-11T06:53:55.790Z,-0.31
2023-03-11T06:56:36.426Z,-0.23
2023-03-11T06:59:28.520Z,-0.16
2023-03-11T07:02:16.177Z,-0.10
2023-03-11T07:05:00.851Z,-0.02
2023-03-11T07:07:44.799Z,0.06
2023-03-11T07:10:34.455Z,0.16
2023-03-11T07:13:25.351Z,0.23
2023-03-11T07:16:19.380Z,0.28
2023-03-11T07:19:11.461Z,0.35
2023-03-11T07:21:45.142Z,0.39
2023-03-11T07:24:36.109Z,0.42
2023-03-11T07:28:15.452Z,0.45
2023-03-11T07:30:41.571Z,0.50
2023-03-11T07:33:15.627Z,0.53
2023-03-11T07:36:11.284Z,0.59
2023-03-11T07:38:48.407Z,0.64
2023-03-11T07:41:22.118Z,0.68
2023-03-11T07:44:15.733Z,0.73
2023-03-11T07:47:07.682Z,0.77
2023-03-11T07:49:42.375Z,0.80
2023-03-11T07:52:34.172Z,0.84
2023-03-11T08:08:13.329Z,0.99
2023-03-11T08:18:23.264Z,1.02
2023-03-11T08:21:07.721Z,1.06
2023-03-11T08:24:03.364Z,1.12
2023-03-11T08:26:55.641Z,1.18
2023-03-11T08:29:37.461Z,1.21
2023-03-11T08:32:09.404Z,1.21
2023-03-11T08:34:43.105Z,1.24
2023-03-11T08:37:26.039Z,1.30
2023-03-11T08:40:22.074Z,1.40
2023-03-11T08:42:53.133Z,1.51
2023-03-11T08:45:26.515Z,1.63
2023-03-11T08:47:59.734Z,1.78
2023-03-11T08:50:53.573Z,2.03
2023-03-11T08:53:35.639Z,2.29
2023-03-11T08:56:28.773Z,2.67
2023-03-11T08:59:04.786Z,3.07
2023-03-11T09:01:35.514Z,3.30
2023-03-11T09:04:17.993Z,3.41
2023-03-11T09:06:49.958Z,3.73
2023-03-11T09:09:40.746Z,4.16
2023-03-11T09:12:25.153Z,4.37
2023-03-11T09:15:07.865Z,4.52
2023-03-11T09:17:49.949Z,4.65
2023-03-11T09:20:42.678Z,4.35
2023-03-11T09:23:18.858Z,4.04
2023-03-11T09:25:49.958Z,3.91
2023-03-11T09:28:41.645Z,3.78
2023-03-11T09:31:23.626Z,3.67
2023-03-11T09:33:59.082Z,3.59
2023-03-11T09:36:32.517Z,3.59
2023-03-11T09:39:14.015Z,3.66
2023-03-11T09:41:58.533Z,3.69
2023-03-11T09:44:46.287Z,3.62
2023-03-11T09:47:32.164Z,3.54
2023-03-11T09:50:31.402Z,3.47
2023-03-11T09:53:22.981Z,3.44
2023-03-11T09:56:14.990Z,3.55
2023-03-11T09:58:48.504Z,3.75
2023-03-11T10:01:24.516Z,3.80
2023-03-11T10:04:13.781Z,3.82
2023-03-11T10:07:13.514Z,3.93
2023-03-11T10:10:04.419Z,4.03
2023-03-11T10:12:52.577Z,4.10
2023-03-11T10:15:41.407Z,4.02
2023-03-11T10:18:50.032Z,3.96
2023-03-11T10:21:37.039Z,4.01
2023-03-11T10:24:45.812Z,4.10
2023-03-11T10:27:44.552Z,4.32
2023-03-11T10:30:31.001Z,4.35
2023-03-11T10:33:23.007Z,4.39
2023-03-11T10:36:24.094Z,4.47
2023-03-11T10:39:15.216Z,4.59
2023-03-11T10:42:03.370Z,4.62
2023-03-11T10:44:54.378Z,4.63
2023-03-11T10:47:34.311Z,4.69
2023-03-11T10:50:12.509Z,4.82
2023-03-11T10:53:15.966Z,4.92
2023-03-11T10:56:07.516Z,4.99
2023-03-11T10:58:52.559Z,5.03
2023-03-11T11:01:27.501Z,5.17
2023-03-11T11:04:29.679Z,5.13
2023-03-11T11:07:32.227Z,4.95
2023-03-11T11:10:25.283Z,4.73
2023-03-11T11:13:17.654Z,4.65
2023-03-11T11:16:00.262Z,4.68
2023-03-11T11:18:33.484Z,4.77
2023-03-11T11:21:07.808Z,4.83
2023-03-11T11:23:42.621Z,4.80
2023-03-11T11:26:25.490Z,4.73
2023-03-11T11:29:16.918Z,4.64
2023-03-11T11:31:48.473Z,4.51
2023-03-11T11:34:34.371Z,4.36
2023-03-11T11:37:16.517Z,4.24
2023-03-11T11:40:19.765Z,4.30
2023-03-11T11:43:05.897Z,4.56
2023-03-11T11:46:03.722Z,4.89
2023-03-11T11:48:46.146Z,5.04
2023-03-11T11:51:22.346Z,5.10
2023-03-11T11:54:00.993Z,5.05
2023-03-11T11:56:48.157Z,4.99
2023-03-11T11:59:21.878Z,4.98
2023-03-11T12:02:19.713Z,5.01
2023-03-11T12:04:58.005Z,5.01
2023-03-11T12:07:55.573Z,5.04
2023-03-11T12:10:32.697Z,4.98
2023-03-11T12:13:42.242Z,4.94
2023-03-11T12:16:24.813Z,5.23
2023-03-11T12:19:27.598Z,5.72
2023-03-11T12:22:56.582Z,6.36
2023-03-11T12:26:00.336Z,7.11
2023-03-11T12:28:47.030Z,7.36
2023-03-11T12:31:18.555Z,7.37
2023-03-11T12:34:05.403Z,7.16
2023-03-11T12:37:02.432Z,7.02
2023-03-11T12:39:36.868Z,6.92
2023-03-11T12:42:23.062Z,6.88
2023-03-11T12:45:50.222Z,6.79
2023-03-11T12:48:45.954Z,6.68
2023-03-11T12:51:41.098Z,6.96
2023-03-11T12:54:32.500Z,7.44
2023-03-11T12:57:13.383Z,7.50
2023-03-11T13:00:23.733Z,7.50
2023-03-11T13:03:26.961Z,7.45
2023-03-11T13:06:11.836Z,7.27
2023-03-11T13:08:50.044Z,7.09
2023-03-11T13:11:43.171Z,6.82
2023-03-11T13:14:31.370Z,6.64
2023-03-11T13:17:32.598Z,6.51
2023-03-11T13:20:57.587Z,6.44
2023-03-11T13:23:48.514Z,6.38
2023-03-11T13:26:45.049Z,6.30
2023-03-11T13:29:53.139Z,6.23
2023-03-11T13:32:43.555Z,6.03
2023-03-11T13:35:41.893Z,5.90
2023-03-11T13:39:04.672Z,5.66
2023-03-11T13:41:56.150Z,5.45
2023-03-11T13:44:48.778Z,5.26
2023-03-11T13:47:31.780Z,5.04
2023-03-11T13:50:24.149Z,4.89
2023-03-11T13:53:22.623Z,4.79
2023-03-11T13:55:56.428Z,4.77
2023-03-11T13:58:31.087Z,4.78
2023-03-11T14:01:03.510Z,4.71
2023-03-11T14:03:46.215Z,4.70
2023-03-11T14:06:33.228Z,4.73
2023-03-11T14:09:27.135Z,4.75
2023-03-11T14:12:19.173Z,4.78
2023-03-11T14:15:15.301Z,4.86
2023-03-11T14:17:49.041Z,4.97
2023-03-11T14:20:30.693Z,5.01
2023-03-11T14:23:20.997Z,5.05
2023-03-11T14:26:06.225Z,5.08
2023-03-11T14:28:45.201Z,5.13
2023-03-11T14:31:31.597Z,5.24
2023-03-11T14:34:06.834Z,5.33
2023-03-11T14:36:45.223Z,5.34
2023-03-11T14:39:40.541Z,5.32
2023-03-11T14:42:26.877Z,5.40
2023-03-11T14:45:05.289Z,5.47
2023-03-11T14:47:40.842Z,5.50
2023-03-11T14:50:22.962Z,5.42
2023-03-11T14:53:03.041Z,5.30
2023-03-11T14:55:40.585Z,5.18
2023-03-11T14:58:18.490Z,5.15
2023-03-11T15:00:56.405Z,5.15
2023-03-11T15:03:31.811Z,5.15
2023-03-11T15:06:24.804Z,5.07
2023-03-11T15:09:18.559Z,5.01
2023-03-11T15:11:52.227Z,4.94
2023-03-11T15:14:27.785Z,4.89
2023-03-11T15:17:17.524Z,5.05
2023-03-11T15:20:26.578Z,5.52
2023-03-11T15:23:01.928Z,5.76
2023-03-11T15:25:38.444Z,5.95
2023-03-11T15:28:25.364Z,6.01
2023-03-11T15:31:35.843Z,5.96
2023-03-11T15:34:32.390Z,5.93
2023-03-11T15:37:23.515Z,5.82
2023-03-11T15:39:55.136Z,5.74
2023-03-11T15:42:27.872Z,5.62
2023-03-11T15:45:21.586Z,5.51
2023-03-11T15:47:52.554Z,5.41
2023-03-11T15:50:54.496Z,5.54
2023-03-11T15:53:27.423Z,5.71
2023-03-11T15:56:07.337Z,6.03
2023-03-11T15:58:41.611Z,6.02
2023-03-11T16:01:13.208Z,5.93
2023-03-11T16:03:46.412Z,5.84
2023-03-11T16:06:17.471Z,5.74
2023-03-11T16:08:50.654Z,5.57
2023-03-11T16:11:35.557Z,5.30
2023-03-11T16:14:07.205Z,5.01
2023-03-11T16:16:40.500Z,4.77
2023-03-11T16:19:15.557Z,4.56
2023-03-11T16:21:50.662Z,4.39
2023-03-11T16:24:41.898Z,4.25
2023-03-11T16:27:19.055Z,4.16
2023-03-11T16:29:50.081Z,4.08
2023-03-11T16:32:41.043Z,4.02
2023-03-11T16:35:32.152Z,3.98
2023-03-11T16:38:07.856Z,3.94
2023-03-11T16:40:39.041Z,3.89
2023-03-11T16:43:31.136Z,3.82
2023-03-11T16:46:02.055Z,3.75
2023-03-11T16:48:32.969Z,3.67
2023-03-11T16:51:21.993Z,3.58
2023-03-11T16:54:11.864Z,3.49
2023-03-11T16:57:03.089Z,3.39
2023-03-11T16:59:56.499Z,3.28
2023-03-11T17:02:47.636Z,3.18
2023-03-11T17:05:38.394Z,3.08
2023-03-11T17:08:19.615Z,3.00
2023-03-11T17:11:04.783Z,2.91
2023-03-11T17:13:50.256Z,2.83
2023-03-11T17:16:36.706Z,2.76
2023-03-11T17:19:22.557Z,2.71
2023-03-11T17:22:05.571Z,2.65
2023-03-11T17:24:56.179Z,2.54
2023-03-11T17:27:47.838Z,2.44
2023-03-11T17:30:36.699Z,2.32
2023-03-11T17:33:28.309Z,2.23
2023-03-11T17:36:20.124Z,2.16
2023-03-11T17:38:57.067Z,2.06
2023-03-11T17:41:59.198Z,1.95
2023-03-11T17:44:48.580Z,1.84
2023-03-11T17:47:41.801Z,1.70
2023-03-11T17:50:38.670Z,1.55
2023-03-11T17:53:30.536Z,1.41
2023-03-11T17:56:04.579Z,1.29
2023-03-11T17:58:48.990Z,1.18
2023-03-11T18:01:41.966Z,1.05
2023-03-11T18:04:32.936Z,0.91
2023-03-11T18:07:06.933Z,0.81
2023-03-11T18:09:57.497Z,0.71
2023-03-11T18:12:49.904Z,0.60
2023-03-11T18:15:41.407Z,0.52
2023-03-11T18:18:21.299Z,0.43
2023-03-11T18:21:15.455Z,0.33
2023-03-11T18:24:07.163Z,0.25
2023-03-11T18:26:58.168Z,0.19
2023-03-11T18:29:49.074Z,0.12
2023-03-11T18:32:40.005Z,0.06
2023-03-11T18:35:31.088Z,-0.01
2023-03-11T18:38:21.988Z,-0.07
2023-03-11T18:41:12.988Z,-0.13
2023-03-11T18:44:04.600Z,-0.19
2023-03-11T18:46:54.363Z,-0.25
2023-03-11T18:49:46.063Z,-0.31
2023-03-11T18:52:37.074Z,-0.34
2023-03-11T18:55:28.491Z,-0.37
2023-03-11T18:58:18.025Z,-0.41
2023-03-11T19:01:08.594Z,-0.46
2023-03-11T19:03:55.210Z,-0.51
2023-03-11T19:06:36.159Z,-0.56
2023-03-11T19:09:27.079Z,-0.61
2023-03-11T19:11:57.803Z,-0.66
2023-03-11T19:14:48.735Z,-0.71
2023-03-11T19:17:39.790Z,-0.75
2023-03-11T19:20:30.785Z,-0.81
2023-03-11T19:23:21.674Z,-0.85
2023-03-11T19:26:13.189Z,-0.89
2023-03-11T19:29:02.870Z,-0.94
2023-03-11T19:31:53.774Z,-0.99
2023-03-11T19:34:44.695Z,-1.04
2023-03-11T19:37:35.861Z,-1.08
2023-03-11T19:40:29.741Z,-1.13
2023-03-11T19:43:20.664Z,-1.18
2023-03-11T19:46:14.716Z,-1.22
2023-03-11T19:49:06.213Z,-1.24
2023-03-11T19:51:50.406Z,-1.27
2023-03-11T19:54:35.913Z,-1.30
2023-03-11T19:57:10.011Z,-1.33
2023-03-11T20:00:00.950Z,-1.35
2023-03-11T20:02:51.965Z,-1.38
2023-03-11T20:05:44.723Z,-1.40
2023-03-11T20:08:21.139Z,-1.43
2023-03-11T20:11:12.220Z,-1.47
2023-03-11T20:14:03.782Z,-1.50
2023-03-11T20:16:48.577Z,-1.54
2023-03-11T20:19:39.583Z,-1.57
2023-03-11T20:22:30.446Z,-1.60
2023-03-11T20:25:22.000Z,-1.64
2023-03-11T20:28:02.665Z,-1.67
2023-03-11T20:30:54.436Z,-1.70
2023-03-11T20:33:45.305Z,-1.73
2023-03-11T20:36:37.066Z,-1.76
2023-03-11T20:39:28.183Z,-1.79
2023-03-11T20:42:18.991Z,-1.81
2023-03-11T20:45:02.875Z,-1.84
2023-03-11T20:47:54.226Z,-1.85
2023-03-11T20:50:35.183Z,-1.87
2023-03-11T20:53:26.506Z,-1.88
2023-03-11T20:56:20.489Z,-1.88
2023-03-11T20:59:14.406Z,-1.90
2023-03-11T21:02:04.714Z,-1.91
2023-03-11T21:04:55.945Z,-1.93
2023-03-11T21:07:48.977Z,-1.95
2023-03-11T21:10:40.233Z,-1.96
2023-03-11T21:13:32.577Z,-1.98
2023-03-11T21:16:24.254Z,-2.00
2023-03-11T21:19:15.843Z,-2.02
2023-03-11T21:22:06.676Z,-2.03
2023-03-11T21:24:39.944Z,-2.04
2023-03-11T21:27:30.877Z,-2.05
2023-03-11T21:30:22.367Z,-2.06
2023-03-11T21:33:13.491Z,-2.07
2023-03-11T21:36:05.170Z,-2.08
2023-03-11T21:38:56.264Z,-2.09
2023-03-11T21:41:47.260Z,-2.12
2023-03-11T21:44:38.214Z,-2.14
2023-03-11T21:47:29.466Z,-2.16
2023-03-11T21:50:20.796Z,-2.16
2023-03-11T21:53:11.926Z,-2.17
2023-03-11T21:56:04.648Z,-2.19
2023-03-11T21:58:55.838Z,-2.19
2023-03-11T22:01:47.356Z,-2.20
2023-03-11T22:04:36.923Z,-2.21
2023-03-11T22:07:28.145Z,-2.21
2023-03-11T22:10:19.922Z,-2.22
2023-03-11T22:13:11.197Z,-2.22
2023-03-11T22:16:05.571Z,-2.21
2023-03-11T22:18:57.059Z,-2.22
2023-03-11T22:21:46.540Z,-2.22
2023-03-11T22:24:37.594Z,-2.22
2023-03-11T22:27:28.584Z,-2.24
2023-03-11T22:30:19.870Z,-2.25
2023-03-11T22:33:11.449Z,-2.25
2023-03-11T22:35:56.333Z,-2.24
2023-03-11T22:38:48.886Z,-2.25
2023-03-11T22:41:39.817Z,-2.26
2023-03-11T22:44:31.295Z,-2.28
2023-03-11T22:47:20.617Z,-2.31
2023-03-11T22:50:01.554Z,-2.33
2023-03-11T22:52:52.530Z,-2.36
2023-03-11T22:55:44.811Z,-2.38
2023-03-11T22:58:35.832Z,-2.39
2023-03-11T23:01:26.643Z,-2.39
2023-03-11T23:04:17.620Z,-2.40
2023-03-11T23:07:08.624Z,-2.41
2023-03-11T23:09:59.564Z,-2.42
2023-03-11T23:12:40.832Z,-2.43
2023-03-11T23:15:24.826Z,-2.43
2023-03-11T23:18:16.770Z,-2.44
2023-03-11T23:21:14.801Z,-2.44
2023-03-11T23:23:45.594Z,-2.45
2023-03-11T23:26:37.746Z,-2.45
2023-03-11T23:29:22.617Z,-2.47
2023-03-11T23:32:13.920Z,-2.48
2023-03-11T23:34:58.631Z,-2.47
2023-03-11T23:37:52.016Z,-2.46
2023-03-11T23:40:36.193Z,-2.46
2023-03-11T23:43:27.961Z,-2.47
2023-03-11T23:46:18.853Z,-2.48
2023-03-11T23:49:10.334Z,-2.50
2023-03-11T23:52:01.228Z,-2.52
2023-03-11T23:54:52.207Z,-2.55
2023-03-11T23:57:43.110Z,-2.56
